KEKN/EKN METAR and TAF weather

Enter ICAO airport designator
Station Type Date Time Source
KEKN METAR 2022/01/29 01:24 UTC NOAA

KEKN 290124Z AUTO 33006KT 1SM -SN VV012 M03/M07 A2995 RMK AO2 P0001 T10331067


Station Type Date Time Source
KEKN Decoded METAR 2022/01/29 01:24 UTC NOAA

JENNINGS RANDOLPH FIELD, WV, United States (KEKN) 38-53N 079-51W 603M
Jan 28, 2022 - 08:24 PM EST / 2022.01.29 0124 UTC
Wind: from the NNW (330 degrees) at 7 MPH (6 KT):0
Visibility: 1 mile(s):0
Sky conditions: obscured
Weather: light snow
Precipitation last hour: 0.01 inches
Temperature: 26.1 F (-3.3 C)
Windchill: 17 F (-8 C):1
Dew Point: 19.9 F (-6.7 C)
Relative Humidity: 77%
Pressure (altimeter): 29.95 in. Hg (1014 hPa)
ob: KEKN 290124Z AUTO 33006KT 1SM -SN VV012 M03/M07 A2995 RMK AO2 P0001 T10331067
cycle: 1

Station Type Date Time Source
KEKN TAF 2022/01/28 21:06 UTC NOAA

TAF
AMD KEKN 282104Z 2821/2918 35007KT 1 1/2SM -SN SCT011 BKN026 OVC030
TEMPO 2822/2824 3SM -SN BKN009 OVC024
FM290300 33008KT 2SM -SN OVC012
FM290600 32007KT 4SM -SHSN OVC020
FM291000 31009G15KT P6SM OVC020

Example: see airport list